Time;durP1;ratioP1;P1;durP2;ratioP2;P2;SDS_P1;SDS_P2;PMS_P1;PMS_P2;Temp;Humidity;BMP_temperature;BMP_pressure;BME280_temperature;BME280_humidity;BME280_pressure;Samples;Min_cycle;Max_cycle;Signal;HPM_P1;HPM_P2
2023/09/04 00:00:09;;;;;;;;;1.00;1.00;;;;;24.59;44.39;101927.80;110195;1265;19579;-37
2023/09/04 00:02:56;;;;;;;;;4.00;4.00;;;;;24.62;44.44;101927.11;110230;1265;21145;-37
2023/09/04 00:05:24;;;;;;;;;1.00;1.00;;;;;24.61;44.35;101920.30;110208;1251;20052;-37
2023/09/04 00:07:51;;;;;;;;;2.00;1.00;;;;;24.62;44.36;101920.14;110171;1259;22193;-36
2023/09/04 00:10:18;;;;;;;;;2.00;2.00;;;;;24.60;44.48;101917.08;110201;1265;18349;-36
2023/09/04 00:12:45;;;;;;;;;1.00;1.00;;;;;24.59;44.43;101917.56;110174;1251;20049;-36
2023/09/04 00:15:13;;;;;;;;;2.00;2.00;;;;;24.61;44.47;101919.33;110191;1265;20711;-37
2023/09/04 00:17:40;;;;;;;;;1.00;1.00;;;;;24.61;44.48;101915.92;110193;1265;22355;-38
2023/09/04 00:20:08;;;;;;;;;2.00;2.00;;;;;24.62;44.33;101918.51;110164;1265;18637;-38
2023/09/04 00:22:35;;;;;;;;;1.00;1.00;;;;;24.64;44.32;101922.85;110098;1251;20797;-35
2023/09/04 00:25:03;;;;;;;;;2.00;2.00;;;;;24.62;44.58;101926.17;110156;1251;21983;-38
2023/09/04 00:27:30;;;;;;;;;1.33;1.33;;;;;24.62;44.47;101920.96;110207;1251;20086;-37
2023/09/04 00:29:57;;;;;;;;;1.00;1.00;;;;;24.63;44.49;101921.59;109791;1250;500015;-35
2023/09/04 00:32:25;;;;;;;;;1.00;1.00;;;;;24.62;44.37;101923.05;110199;1251;19705;-37
2023/09/04 00:34:52;;;;;;;;;4.00;2.00;;;;;24.64;44.60;101917.30;110179;1265;23540;-38
2023/09/04 00:37:19;;;;;;;;;1.00;1.00;;;;;24.62;44.48;101917.13;110165;1251;20970;-38
2023/09/04 00:39:46;;;;;;;;;1.00;1.00;;;;;24.61;44.70;101917.89;110171;1250;21255;-37
2023/09/04 00:42:15;;;;;;;;;2.00;2.00;;;;;24.61;44.59;101917.90;110174;1251;20052;-36
2023/09/04 00:44:44;;;;;;;;;1.33;1.33;;;;;24.59;44.71;101917.52;110178;1249;20687;-38
2023/09/04 00:47:14;;;;;;;;;1.00;1.00;;;;;24.61;44.71;101916.92;110174;1251;19622;-37
2023/09/04 00:49:41;;;;;;;;;1.00;1.00;;;;;24.62;44.63;101923.27;110192;1251;19973;-37
2023/09/04 00:52:10;;;;;;;;;2.00;2.00;;;;;24.57;44.67;101920.30;110159;1250;21482;-37
2023/09/04 00:54:37;;;;;;;;;2.00;2.00;;;;;24.61;44.64;101928.09;110165;1265;18352;-37
2023/09/04 00:57:05;;;;;;;;;1.00;1.00;;;;;24.61;44.54;101928.36;110175;1251;19956;-36
2023/09/04 00:59:32;;;;;;;;;1.00;1.00;;;;;24.61;44.59;101927.20;110173;1265;20802;-36
2023/09/04 01:01:59;;;;;;;;;1.00;1.00;;;;;24.62;44.46;101926.77;110176;1258;19687;-38
2023/09/04 01:04:27;;;;;;;;;2.00;2.00;;;;;24.63;44.56;101931.55;110129;1265;19280;-38
2023/09/04 01:06:54;;;;;;;;;2.00;2.00;;;;;24.63;44.60;101928.81;110095;1250;20660;-35
2023/09/04 01:09:21;;;;;;;;;2.00;2.00;;;;;24.58;44.79;101926.10;110153;1249;19664;-37
2023/09/04 01:11:49;;;;;;;;;1.00;1.00;;;;;24.56;44.87;101925.44;110178;1265;20961;-36
2023/09/04 01:14:17;;;;;;;;;2.00;2.00;;;;;24.59;44.64;101930.55;110174;1251;20959;-36
2023/09/04 01:16:44;;;;;;;;;1.00;1.00;;;;;24.57;44.78;101927.97;110186;1251;19684;-36
2023/09/04 01:19:11;;;;;;;;;1.00;1.00;;;;;24.60;44.68;101927.15;110183;1251;22643;-36
2023/09/04 01:21:39;;;;;;;;;2.00;2.00;;;;;24.58;44.67;101926.16;110189;1251;20839;-36
2023/09/04 01:24:08;;;;;;;;;1.00;1.00;;;;;24.58;44.88;101930.88;110199;1251;19653;-36
2023/09/04 01:26:36;;;;;;;;;1.00;1.00;;;;;24.57;44.94;101932.78;110179;1251;20064;-36
2023/09/04 01:29:03;;;;;;;;;10.00;10.00;;;;;24.55;44.74;101926.10;110196;1251;20957;-37
2023/09/04 01:31:31;;;;;;;;;2.00;2.00;;;;;24.56;44.71;101921.00;110187;1260;19795;-38
2023/09/04 01:33:58;;;;;;;;;1.00;1.00;;;;;24.53;45.01;101917.04;110188;1265;18648;-38
2023/09/04 01:36:25;;;;;;;;;1.00;1.00;;;;;24.52;44.81;101914.41;110165;1265;22573;-37
2023/09/04 01:38:53;;;;;;;;;1.00;1.00;;;;;24.53;45.11;101909.44;110179;1251;19616;-37
2023/09/04 01:41:20;;;;;;;;;1.00;1.00;;;;;24.53;44.92;101913.87;110151;1250;21973;-36
2023/09/04 01:43:47;;;;;;;;;1.00;1.00;;;;;24.56;44.98;101925.50;110187;1251;20985;-37
2023/09/04 01:46:15;;;;;;;;;1.00;1.00;;;;;24.53;45.14;101934.09;110168;1253;22771;-37
2023/09/04 01:48:42;;;;;;;;;1.00;1.00;;;;;24.56;44.84;101939.73;110164;1253;20028;-37
2023/09/04 01:51:09;;;;;;;;;4.00;4.00;;;;;24.57;44.92;101946.33;110196;1265;22345;-36
2023/09/04 01:53:37;;;;;;;;;1.00;1.00;;;;;24.56;44.75;101940.02;110171;1251;19727;-39
2023/09/04 01:56:04;;;;;;;;;2.00;2.00;;;;;24.56;44.92;101939.08;110198;1265;20245;-37
2023/09/04 01:58:31;;;;;;;;;2.00;2.00;;;;;24.58;44.83;101940.68;110182;1253;20781;-36
2023/09/04 02:00:59;;;;;;;;;1.00;1.00;;;;;24.59;44.80;101944.46;110208;1249;18456;-37
2023/09/04 02:03:26;;;;;;;;;1.00;1.00;;;;;24.58;45.04;101945.56;110184;1251;20090;-36
2023/09/04 02:05:54;;;;;;;;;1.00;1.00;;;;;24.59;44.86;101953.83;110174;1250;22161;-36
2023/09/04 02:08:21;;;;;;;;;1.00;1.00;;;;;24.57;44.84;101967.46;110114;1251;19673;-36
2023/09/04 02:10:48;;;;;;;;;1.00;1.00;;;;;24.59;44.76;101973.28;110104;1265;18544;-36
2023/09/04 02:13:16;;;;;;;;;4.00;4.00;;;;;24.60;44.99;101968.91;110199;1265;19356;-36
2023/09/04 02:15:43;;;;;;;;;2.00;1.00;;;;;24.57;45.08;101968.95;110159;1251;22468;-37
2023/09/04 02:18:10;;;;;;;;;1.00;1.00;;;;;24.60;44.88;101967.53;110190;1251;20212;-37
2023/09/04 02:20:38;;;;;;;;;2.00;1.00;;;;;24.60;44.93;101963.64;110179;1265;19364;-37
2023/09/04 02:23:05;;;;;;;;;1.00;1.00;;;;;24.60;45.05;101955.42;110184;1250;19671;-37
2023/09/04 02:25:32;;;;;;;;;1.00;1.00;;;;;24.58;45.02;101940.13;110205;1265;20168;-37
2023/09/04 02:28:00;;;;;;;;;2.00;2.00;;;;;24.58;44.87;101939.86;110189;1251;20865;-37
2023/09/04 02:30:27;;;;;;;;;1.00;1.00;;;;;24.57;44.94;101940.73;110203;1265;18413;-37
2023/09/04 02:32:58;;;;;;;;;2.00;2.00;;;;;24.57;44.96;101941.60;110172;1249;21284;-37
2023/09/04 02:35:26;;;;;;;;;1.00;1.00;;;;;24.57;45.04;101944.95;110200;1259;20770;-37
2023/09/04 02:37:53;;;;;;;;;1.00;1.00;;;;;24.57;45.00;101945.65;110060;1266;18374;-38
2023/09/04 02:40:21;;;;;;;;;1.00;1.00;;;;;24.58;45.15;101942.05;110188;1259;22871;-36
2023/09/04 02:42:48;;;;;;;;;1.33;1.00;;;;;24.54;45.06;101938.04;110197;1250;19317;-37
2023/09/04 02:45:15;;;;;;;;;1.00;1.00;;;;;24.51;45.01;101935.48;110158;1251;19674;-37
2023/09/04 02:47:43;;;;;;;;;1.00;1.00;;;;;24.52;45.22;101944.77;110163;1265;18674;-38
2023/09/04 02:50:10;;;;;;;;;1.00;1.00;;;;;24.46;45.31;101943.20;110188;1251;20819;-37
2023/09/04 02:52:38;;;;;;;;;2.00;1.00;;;;;24.46;45.36;101951.30;110177;1265;18716;-37
2023/09/04 02:55:06;;;;;;;;;1.00;1.00;;;;;24.44;45.24;101955.08;110058;1250;18621;-37
2023/09/04 02:57:33;;;;;;;;;1.00;1.00;;;;;24.44;45.21;101957.77;110088;1251;20636;-37
2023/09/04 03:00:01;;;;;;;;;1.50;1.50;;;;;24.45;45.55;101959.35;110176;1251;19704;-38
2023/09/04 03:02:28;;;;;;;;;1.00;1.00;;;;;24.44;45.57;101957.98;110171;1251;20103;-37
2023/09/04 03:04:55;;;;;;;;;1.00;1.00;;;;;24.43;45.35;101955.89;110178;1257;20013;-37
2023/09/04 03:07:25;;;;;;;;;1.00;1.00;;;;;24.41;45.69;101952.27;110187;1251;19643;-38
2023/09/04 03:09:53;;;;;;;;;1.00;1.00;;;;;24.42;45.43;101959.61;110188;1265;19976;-38
2023/09/04 03:12:20;;;;;;;;;1.00;1.00;;;;;24.41;45.36;101968.54;110204;1250;20809;-37
2023/09/04 03:14:52;;;;;;;;;3.33;2.00;;;;;24.40;45.76;101976.26;110168;1251;19660;-37
2023/09/04 03:17:19;;;;;;;;;1.00;1.00;;;;;24.41;45.60;101975.60;110202;1265;19985;-37
2023/09/04 03:19:47;;;;;;;;;5.50;5.50;;;;;24.42;45.56;101973.03;110183;1251;20769;-36
2023/09/04 03:22:14;;;;;;;;;1.00;1.00;;;;;24.42;45.40;101978.94;110167;1250;19566;-37
2023/09/04 03:24:41;;;;;;;;;1.00;1.00;;;;;24.39;45.62;101977.52;110182;1251;19923;-37
2023/09/04 03:27:09;;;;;;;;;1.00;1.00;;;;;24.41;45.44;101976.38;110174;1265;22870;-37
2023/09/04 03:29:36;;;;;;;;;1.00;1.00;;;;;24.41;45.59;101975.27;110182;1250;18758;-38
2023/09/04 03:32:03;;;;;;;;;1.00;1.00;;;;;24.41;45.55;101976.21;110195;1259;20088;-38
2023/09/04 03:34:31;;;;;;;;;1.00;1.00;;;;;24.40;45.63;101975.48;110196;1265;19316;-38
2023/09/04 03:36:58;;;;;;;;;1.00;1.00;;;;;24.37;45.69;101973.45;110194;1253;19751;-38
2023/09/04 03:39:26;;;;;;;;;1.00;1.00;;;;;24.37;45.82;101984.23;110156;1251;20258;-36
2023/09/04 03:41:53;;;;;;;;;1.00;1.00;;;;;24.39;45.52;101982.88;110186;1251;20773;-37
2023/09/04 03:44:20;;;;;;;;;1.00;1.00;;;;;24.41;45.63;101982.57;110161;1250;21434;-37
2023/09/04 03:46:48;;;;;;;;;1.00;1.00;;;;;24.38;45.50;101980.34;110200;1251;20017;-38
2023/09/04 03:49:15;;;;;;;;;1.00;1.00;;;;;24.38;45.73;101978.77;110194;1250;21923;-37
2023/09/04 03:51:42;;;;;;;;;1.00;1.00;;;;;24.41;45.72;101977.91;110192;1251;19680;-37
2023/09/04 03:54:10;;;;;;;;;1.00;1.00;;;;;24.40;45.61;101975.27;110172;1251;23040;-37
2023/09/04 03:56:37;;;;;;;;;1.00;1.00;;;;;24.40;45.62;101966.88;110177;1253;20794;-36
2023/09/04 03:59:04;;;;;;;;;1.00;1.00;;;;;24.40;45.53;101961.14;110199;1252;19973;-37
2023/09/04 04:01:33;;;;;;;;;2.00;2.00;;;;;24.43;45.73;101960.43;110181;1252;21682;-38
2023/09/04 04:04:00;;;;;;;;;1.00;1.00;;;;;24.45;45.61;101960.23;110203;1253;20812;-38
2023/09/04 04:06:28;;;;;;;;;2.00;2.00;;;;;24.42;45.66;101964.20;110183;1251;19217;-37
2023/09/04 04:08:55;;;;;;;;;1.00;1.00;;;;;24.43;45.69;101974.73;110170;1251;20114;-38
2023/09/04 04:11:22;;;;;;;;;1.00;1.00;;;;;24.42;45.64;101971.50;110185;1251;21978;-37
2023/09/04 04:13:50;;;;;;;;;2.00;2.00;;;;;24.40;45.84;101977.67;110176;1252;19676;-37
2023/09/04 04:16:17;;;;;;;;;1.00;1.00;;;;;24.42;45.50;101979.77;110181;1265;22739;-37
2023/09/04 04:18:44;;;;;;;;;2.00;2.00;;;;;24.41;45.68;101980.20;110196;1251;22163;-36
2023/09/04 04:21:12;;;;;;;;;2.00;2.00;;;;;24.40;45.89;101984.91;110177;1251;19717;-36
2023/09/04 04:23:39;;;;;;;;;1.33;1.33;;;;;24.40;45.57;101979.53;110182;1251;20101;-38
2023/09/04 04:26:07;;;;;;;;;2.00;2.00;;;;;24.41;45.62;101969.09;110209;1251;20981;-38
2023/09/04 04:28:34;;;;;;;;;2.00;2.00;;;;;24.41;45.59;101965.64;110178;1250;20894;-37
2023/09/04 04:31:01;;;;;;;;;1.00;1.00;;;;;24.37;45.82;101971.52;110195;1253;21135;-37
2023/09/04 04:33:29;;;;;;;;;1.67;1.67;;;;;24.36;45.72;101979.35;110196;1265;19378;-37
2023/09/04 04:35:58;;;;;;;;;2.00;2.00;;;;;24.37;46.04;101984.45;110077;1259;19897;-37
2023/09/04 04:38:25;;;;;;;;;1.00;1.00;;;;;24.36;45.77;101989.16;110224;1265;19869;-37
2023/09/04 04:40:52;;;;;;;;;2.00;1.00;;;;;24.36;45.97;101981.55;110182;1250;19793;-38
2023/09/04 04:43:19;;;;;;;;;2.00;2.00;;;;;24.36;46.01;101976.17;110216;1251;19710;-37
2023/09/04 04:45:48;;;;;;;;;1.00;1.00;;;;;24.38;45.75;101972.29;110057;1249;21464;-37
2023/09/04 04:48:15;;;;;;;;;1.00;1.00;;;;;24.36;45.92;101974.64;110154;1259;20719;-38
2023/09/04 04:50:43;;;;;;;;;1.00;1.00;;;;;24.37;46.04;101983.14;110212;1253;19660;-38
2023/09/04 04:53:11;;;;;;;;;1.50;1.50;;;;;24.37;45.88;101987.90;110179;1249;21964;-37
2023/09/04 04:55:38;;;;;;;;;2.00;2.00;;;;;24.36;45.88;101988.17;110157;1251;20741;-37
2023/09/04 04:58:05;;;;;;;;;1.00;1.00;;;;;24.39;45.89;101986.48;110181;1249;19577;-37
2023/09/04 05:00:32;;;;;;;;;1.00;1.00;;;;;24.38;45.74;101985.11;110171;1265;18599;-37
2023/09/04 05:03:00;;;;;;;;;1.00;1.00;;;;;24.36;45.97;101987.02;110196;1251;20729;-37
2023/09/04 05:05:27;;;;;;;;;1.00;1.00;;;;;24.36;45.87;101994.03;110184;1265;18549;-38
2023/09/04 05:07:54;;;;;;;;;1.00;1.00;;;;;24.36;45.96;101994.14;110171;1265;18681;-37
2023/09/04 05:10:22;;;;;;;;;1.33;1.33;;;;;24.37;45.90;101987.19;110188;1251;20786;-38
2023/09/04 05:12:49;;;;;;;;;1.00;1.00;;;;;24.37;45.83;101998.30;110192;1265;19584;-36
2023/09/04 05:15:16;;;;;;;;;2.00;2.00;;;;;24.36;45.79;102004.48;110184;1251;20016;-37
2023/09/04 05:17:44;;;;;;;;;1.00;1.00;;;;;24.36;46.00;102008.66;110160;1266;22871;-37
2023/09/04 05:20:11;;;;;;;;;1.67;1.67;;;;;24.40;45.84;102010.27;110189;1257;19757;-37
2023/09/04 05:22:39;;;;;;;;;1.00;1.00;;;;;24.46;45.61;102007.45;110182;1252;19999;-37
2023/09/04 05:25:06;;;;;;;;;2.00;2.00;;;;;24.47;45.85;102012.61;110178;1251;21001;-37
2023/09/04 05:27:33;;;;;;;;;2.00;2.00;;;;;24.51;46.15;102014.11;110186;1250;19626;-39
2023/09/04 05:30:01;;;;;;;;;208.00;151.00;;;;;24.62;46.07;102014.27;110173;1265;21556;-36
2023/09/04 05:32:28;;;;;;;;;274.00;200.33;;;;;24.66;46.17;102014.48;110178;1253;22436;-37
2023/09/04 05:34:55;;;;;;;;;357.00;252.50;;;;;24.60;45.94;102013.29;110166;1253;20402;-38
2023/09/04 05:37:23;;;;;;;;;361.00;260.25;;;;;24.67;45.69;102010.65;110194;1266;20249;-37
2023/09/04 05:39:50;;;;;;;;;281.00;213.00;;;;;24.68;45.31;102017.01;110161;1253;20696;-38
2023/09/04 05:42:17;;;;;;;;;211.50;155.00;;;;;24.69;45.31;102020.13;110179;1250;21531;-36
2023/09/04 05:44:45;;;;;;;;;227.67;174.67;;;;;24.71;45.51;102024.04;110142;1265;18834;-36
2023/09/04 05:47:12;;;;;;;;;164.00;120.50;;;;;24.72;45.90;102026.40;110080;1259;20772;-36
2023/09/04 05:49:39;;;;;;;;;121.50;100.00;;;;;24.65;45.99;102026.68;110175;1265;20337;-38
2023/09/04 05:52:07;;;;;;;;;102.33;82.00;;;;;24.57;45.88;102023.14;110187;1251;20137;-37
2023/09/04 05:54:34;;;;;;;;;102.00;70.00;;;;;24.48;46.20;102030.58;110056;1265;22207;-35
2023/09/04 05:57:01;;;;;;;;;81.00;61.00;;;;;24.39;46.13;102039.23;110061;1251;20472;-37
2023/09/04 05:59:29;;;;;;;;;78.00;54.67;;;;;24.30;46.48;102038.29;110214;1265;18843;-37
2023/09/04 06:01:56;;;;;;;;;65.00;48.00;;;;;24.26;46.34;102041.27;110194;1265;19362;-38
2023/09/04 06:04:24;;;;;;;;;64.00;47.50;;;;;24.27;46.47;102054.05;110224;1251;20074;-37
2023/09/04 06:06:51;;;;;;;;;47.00;37.00;;;;;24.27;46.45;102063.36;110211;1250;21359;-36
2023/09/04 06:09:19;;;;;;;;;47.00;40.00;;;;;24.26;46.14;102065.04;110173;1265;19440;-36
2023/09/04 06:11:47;;;;;;;;;34.50;28.50;;;;;24.24;46.43;102064.24;110168;1257;19993;-36
2023/09/04 06:14:15;;;;;;;;;33.00;25.00;;;;;24.24;46.36;102053.95;110179;1259;20084;-37
2023/09/04 06:16:42;;;;;;;;;23.00;20.00;;;;;24.26;46.23;102055.89;110173;1265;19559;-39
2023/09/04 06:19:09;;;;;;;;;24.50;20.00;;;;;24.30;46.34;102058.89;110160;1251;20091;-38
2023/09/04 06:21:36;;;;;;;;;20.00;16.00;;;;;24.26;46.41;102059.81;110187;1265;19198;-37
2023/09/04 06:24:04;;;;;;;;;17.00;15.00;;;;;24.27;46.31;102058.98;110170;1265;19350;-38
2023/09/04 06:26:31;;;;;;;;;14.00;13.00;;;;;24.30;46.29;102060.96;110189;1251;20066;-37
2023/09/04 06:28:58;;;;;;;;;13.00;12.00;;;;;24.26;46.50;102067.23;110176;1251;21345;-36
2023/09/04 06:31:26;;;;;;;;;12.00;12.00;;;;;24.13;46.86;102070.00;110175;1265;19373;-37
2023/09/04 06:33:55;;;;;;;;;13.00;10.00;;;;;24.08;47.15;102075.61;110182;1251;22751;-37
2023/09/04 06:36:23;;;;;;;;;12.00;9.50;;;;;24.03;47.44;102077.86;110168;1265;18725;-36
2023/09/04 06:38:50;;;;;;;;;14.00;9.67;;;;;24.03;47.30;102076.65;110135;1253;20550;-35
2023/09/04 06:41:18;;;;;;;;;12.00;11.00;;;;;23.98;47.11;102078.08;110084;1250;20063;-36
2023/09/04 06:43:46;;;;;;;;;12.00;10.00;;;;;23.99;47.16;102078.91;110160;1251;20155;-36
2023/09/04 06:46:13;;;;;;;;;8.50;8.50;;;;;23.94;47.56;102078.59;110176;1250;21437;-37
2023/09/04 06:48:41;;;;;;;;;13.00;10.00;;;;;23.87;47.56;102071.04;110168;1259;20028;-38
2023/09/04 06:51:08;;;;;;;;;10.00;9.00;;;;;23.87;47.49;102066.21;110170;1265;18746;-37
2023/09/04 06:53:35;;;;;;;;;11.00;9.00;;;;;23.88;47.48;102069.89;110176;1250;20769;-38
2023/09/04 06:56:03;;;;;;;;;10.67;9.67;;;;;23.81;47.58;102078.59;110155;1251;20144;-38
2023/09/04 06:58:30;;;;;;;;;12.00;10.00;;;;;23.79;47.69;102073.14;110194;1251;18620;-37
2023/09/04 07:00:58;;;;;;;;;9.00;9.00;;;;;23.88;47.65;102077.11;110188;1251;20793;-37
2023/09/04 07:03:26;;;;;;;;;12.00;10.00;;;;;23.80;47.94;102090.01;110144;1251;20074;-38
2023/09/04 07:05:53;;;;;;;;;10.00;9.00;;;;;23.77;48.19;102093.64;110162;1250;18660;-37
2023/09/04 07:08:20;;;;;;;;;9.00;9.00;;;;;23.63;48.54;102101.42;110134;1251;20791;-37
2023/09/04 07:10:48;;;;;;;;;9.00;9.00;;;;;23.71;48.50;102105.84;110179;1264;18632;-34
2023/09/04 07:13:15;;;;;;;;;11.00;9.00;;;;;23.73;48.66;102100.60;110182;1250;22175;-36
2023/09/04 07:15:43;;;;;;;;;11.00;9.67;;;;;23.75;48.42;102101.28;110229;1251;20868;-36
2023/09/04 07:18:10;;;;;;;;;12.50;12.50;;;;;23.74;48.57;102099.15;110187;1260;20101;-36
2023/09/04 07:20:38;;;;;;;;;17.00;17.00;;;;;23.73;48.33;102098.58;110202;1265;18746;-36
2023/09/04 07:23:05;;;;;;;;;34.50;32.00;;;;;23.67;48.77;102095.29;110270;1265;20741;-37
2023/09/04 07:25:32;;;;;;;;;13.00;11.00;;;;;23.62;48.86;102095.18;110293;1250;20006;-36
2023/09/04 07:28:00;;;;;;;;;11.00;10.00;;;;;23.63;48.90;102095.41;110262;1251;20185;-37
2023/09/04 07:30:27;;;;;;;;;9.50;9.50;;;;;23.62;48.92;102091.23;110274;1256;21831;-36
2023/09/04 07:32:55;;;;;;;;;10.33;9.00;;;;;23.65;48.99;102090.02;110227;1265;19983;-37
2023/09/04 07:35:22;;;;;;;;;15.00;14.00;;;;;23.63;48.95;102097.55;110181;1265;18821;-38
2023/09/04 07:37:49;;;;;;;;;11.50;11.00;;;;;23.70;48.83;102099.04;110184;1250;20833;-36
2023/09/04 07:40:17;;;;;;;;;18.00;17.50;;;;;23.69;48.67;102097.21;110175;1265;22303;-36
2023/09/04 07:42:45;;;;;;;;;13.00;9.00;;;;;23.68;49.07;102099.67;110216;1250;21784;-36
2023/09/04 07:45:15;;;;;;;;;11.00;9.00;;;;;23.72;48.69;102103.16;110180;1249;20745;-37
2023/09/04 07:47:42;;;;;;;;;13.00;9.00;;;;;23.74;48.79;102105.16;110228;1265;18930;-38
2023/09/04 07:50:11;;;;;;;;;11.00;9.00;;;;;23.72;48.94;102104.10;110231;1265;19955;-37
2023/09/04 07:52:38;;;;;;;;;8.50;8.50;;;;;23.74;48.81;102103.02;110191;1264;20594;-36
2023/09/04 07:55:07;;;;;;;;;12.00;8.50;;;;;23.73;49.01;102106.56;110200;1252;22790;-36
2023/09/04 07:57:34;;;;;;;;;8.50;8.00;;;;;23.71;49.15;102099.77;110199;1265;20043;-36
2023/09/04 08:00:01;;;;;;;;;11.50;11.00;;;;;23.77;49.19;102098.34;110173;1264;19531;-38
2023/09/04 08:02:29;;;;;;;;;8.00;8.00;;;;;23.85;49.13;102094.16;110212;1257;19606;-37
2023/09/04 08:04:57;;;;;;;;;8.00;8.00;;;;;23.96;49.01;102094.88;110195;1265;22919;-38
2023/09/04 08:07:25;;;;;;;;;9.00;9.00;;;;;23.79;49.47;102094.70;110191;1265;19342;-38
2023/09/04 08:09:52;;;;;;;;;12.00;11.00;;;;;23.72;49.55;102093.37;110268;1257;19760;-38
2023/09/04 08:12:19;;;;;;;;;8.00;6.00;;;;;23.72;49.33;102091.45;110110;1265;18655;-37
2023/09/04 08:14:47;;;;;;;;;5.00;5.00;;;;;23.71;49.12;102093.70;110095;1258;21854;-37
2023/09/04 08:17:15;;;;;;;;;8.00;7.00;;;;;23.68;49.16;102094.75;110218;1250;19620;-37
2023/09/04 08:19:42;;;;;;;;;8.00;8.00;;;;;23.57;49.17;102094.95;110230;1257;19504;-36
2023/09/04 08:22:09;;;;;;;;;11.00;9.00;;;;;23.65;48.92;102093.95;110216;1264;19357;-36
2023/09/04 08:24:37;;;;;;;;;9.00;8.00;;;;;23.74;48.82;102091.37;110204;1265;19948;-37
2023/09/04 08:27:04;;;;;;;;;7.67;7.33;;;;;23.75;48.63;102091.05;110249;1251;20238;-37
2023/09/04 08:29:32;;;;;;;;;9.00;8.00;;;;;23.79;48.81;102086.71;110274;1251;20679;-37
2023/09/04 08:31:59;;;;;;;;;11.00;9.00;;;;;23.79;48.96;102087.32;110253;1250;22233;-37
2023/09/04 08:34:26;;;;;;;;;9.00;9.00;;;;;23.69;49.10;102083.11;110153;1249;18679;-37
2023/09/04 08:36:54;;;;;;;;;10.50;10.00;;;;;23.79;49.24;102086.71;110206;1264;19344;-37
2023/09/04 08:39:21;;;;;;;;;9.00;8.67;;;;;23.86;49.36;102087.21;110210;1250;18473;-38
2023/09/04 08:41:48;;;;;;;;;9.00;9.00;;;;;23.92;49.40;102094.44;110218;1264;21554;-37
2023/09/04 08:44:16;;;;;;;;;12.00;11.00;;;;;23.95;49.07;102096.17;110154;1250;20841;-38
2023/09/04 08:46:43;;;;;;;;;9.00;8.50;;;;;23.93;48.51;102100.04;110217;1265;19826;-37
2023/09/04 08:49:10;;;;;;;;;11.00;9.00;;;;;23.95;47.83;102098.58;110282;1250;20093;-37
2023/09/04 08:51:38;;;;;;;;;11.00;9.00;;;;;23.92;47.98;102097.41;110303;1265;20766;-36
2023/09/04 08:54:05;;;;;;;;;11.67;10.33;;;;;23.96;47.83;102099.36;110285;1264;19938;-34
2023/09/04 08:56:32;;;;;;;;;11.00;11.00;;;;;23.84;48.48;102097.27;110259;1250;22518;-36
2023/09/04 08:59:00;;;;;;;;;13.00;11.00;;;;;23.61;48.82;102101.19;110205;1264;19352;-36
2023/09/04 09:01:30;;;;;;;;;9.00;8.00;;;;;23.51;49.26;102102.41;110202;1250;23147;-36
2023/09/04 09:03:57;;;;;;;;;9.00;9.00;;;;;23.45;49.67;102099.27;110163;1251;20100;-36
2023/09/04 09:06:24;;;;;;;;;9.00;8.00;;;;;23.41;49.66;102096.50;110227;1251;21019;-37
2023/09/04 09:08:52;;;;;;;;;13.00;11.00;;;;;23.34;49.87;102096.84;110191;1251;19670;-37
2023/09/04 09:11:20;;;;;;;;;41.00;38.50;;;;;23.21;49.71;102091.77;110184;1250;20168;-36
2023/09/04 09:13:47;;;;;;;;;21.00;19.00;;;;;23.17;50.09;102093.08;110178;1250;19489;-36
2023/09/04 09:16:15;;;;;;;;;10.00;10.00;;;;;23.19;50.20;102094.70;110182;1251;22210;-36
2023/09/04 09:18:43;;;;;;;;;12.00;11.00;;;;;23.42;49.47;102094.21;110189;1264;18735;-37
2023/09/04 09:21:10;;;;;;;;;9.00;8.00;;;;;23.58;49.45;102094.36;110216;1251;20765;-38
2023/09/04 09:23:37;;;;;;;;;15.00;12.00;;;;;23.59;49.45;102097.16;110189;1264;18606;-35
2023/09/04 09:26:05;;;;;;;;;9.00;9.00;;;;;23.58;49.53;102098.27;110190;1249;20187;-36
2023/09/04 09:28:32;;;;;;;;;27.50;26.00;;;;;23.58;49.59;102095.52;110192;1250;21814;-37
2023/09/04 09:30:59;;;;;;;;;45.00;40.67;;;;;23.57;49.66;102088.94;110219;1250;19681;-37
2023/09/04 09:33:26;;;;;;;;;59.00;50.00;;;;;23.63;48.93;102091.91;110212;1264;21957;-37
2023/09/04 09:35:56;;;;;;;;;41.00;31.50;;;;;23.60;48.92;102086.73;110202;1250;22102;-37
2023/09/04 09:38:23;;;;;;;;;26.00;22.00;;;;;23.68;48.35;102086.65;110201;1264;20042;-37
2023/09/04 09:40:51;;;;;;;;;28.00;21.00;;;;;23.72;48.65;102085.28;110193;1264;22954;-37
2023/09/04 09:43:18;;;;;;;;;20.00;18.00;;;;;23.65;48.57;102087.71;110194;1250;20724;-37
2023/09/04 09:45:45;;;;;;;;;20.00;20.00;;;;;23.73;48.69;102087.20;110209;1258;21080;-37
2023/09/04 09:48:13;;;;;;;;;15.50;14.00;;;;;23.86;48.66;102087.28;110194;1250;20162;-37
2023/09/04 09:50:40;;;;;;;;;19.00;15.00;;;;;23.96;48.58;102082.51;110225;1251;20842;-38
2023/09/04 09:53:07;;;;;;;;;37.00;33.50;;;;;24.05;48.63;102079.07;110191;1264;18566;-38
2023/09/04 09:55:35;;;;;;;;;99.50;80.00;;;;;24.13;48.75;102080.02;110140;1250;18937;-37
2023/09/04 09:58:03;;;;;;;;;96.00;79.50;;;;;24.22;49.11;102081.31;110159;1258;22069;-36
2023/09/04 10:00:31;;;;;;;;;75.50;60.50;;;;;24.25;48.85;102077.83;110233;1265;18715;-35
2023/09/04 10:02:58;;;;;;;;;40.50;38.50;;;;;24.25;48.66;102083.09;110252;1259;20359;-39
2023/09/04 10:05:26;;;;;;;;;21.50;21.00;;;;;24.30;48.15;102084.41;110259;1250;20728;-36
2023/09/04 10:07:53;;;;;;;;;8.00;8.00;;;;;24.20;47.01;102081.56;110200;1250;20532;-37
2023/09/04 10:10:20;;;;;;;;;8.00;8.00;;;;;24.13;46.30;102077.13;110206;1265;20028;-36
2023/09/04 10:12:48;;;;;;;;;11.00;11.00;;;;;24.07;46.23;102074.16;110192;1259;20630;-36
2023/09/04 10:15:15;;;;;;;;;7.00;7.00;;;;;24.09;46.28;102077.63;110220;1248;18394;-36
2023/09/04 10:17:43;;;;;;;;;7.33;6.00;;;;;24.08;45.39;102073.73;110202;1250;20064;-37
2023/09/04 10:20:10;;;;;;;;;5.00;5.00;;;;;24.03;44.88;102076.92;110215;1265;19860;-36
2023/09/04 10:22:37;;;;;;;;;6.00;6.00;;;;;24.13;44.75;102069.95;110244;1264;18476;-37
2023/09/04 10:25:05;;;;;;;;;6.00;6.00;;;;;24.18;44.96;102074.37;110232;1259;19960;-36
2023/09/04 10:27:33;;;;;;;;;4.00;4.00;;;;;24.19;45.00;102073.29;110161;1250;19529;-39
2023/09/04 10:30:00;;;;;;;;;5.00;5.00;;;;;24.17;44.67;102067.20;110257;1250;19705;-36
2023/09/04 10:32:28;;;;;;;;;6.00;5.00;;;;;24.20;43.65;102064.64;110278;1258;19923;-37
2023/09/04 10:34:55;;;;;;;;;5.00;4.00;;;;;24.15;43.14;102063.45;110275;1265;23045;-37
2023/09/04 10:37:23;;;;;;;;;8.00;6.00;;;;;24.18;43.05;102063.42;110295;1265;18327;-37
2023/09/04 10:39:50;;;;;;;;;6.00;6.00;;;;;24.17;42.58;102065.83;110311;1250;20051;-37
2023/09/04 10:42:17;;;;;;;;;4.00;4.00;;;;;24.17;42.23;102069.77;110211;1254;22727;-37
2023/09/04 10:44:45;;;;;;;;;5.00;5.00;;;;;24.17;42.15;102068.29;110220;1251;19620;-37
2023/09/04 10:47:12;;;;;;;;;5.00;5.00;;;;;24.16;41.24;102068.39;110195;1265;18535;-37
2023/09/04 10:49:41;;;;;;;;;6.00;6.00;;;;;24.17;40.25;102063.96;110222;1265;22204;-38
2023/09/04 10:52:09;;;;;;;;;8.00;6.00;;;;;24.19;40.17;102061.62;110206;1265;18602;-38
2023/09/04 10:54:36;;;;;;;;;6.00;5.00;;;;;24.25;40.44;102062.01;110241;1265;20192;-37
2023/09/04 10:57:06;;;;;;;;;5.33;5.33;;;;;24.21;40.66;102065.75;110272;1265;19343;-38
2023/09/04 10:59:34;;;;;;;;;7.00;7.00;;;;;24.25;40.77;102062.56;110238;1265;22386;-38
2023/09/04 11:02:01;;;;;;;;;7.00;7.00;;;;;24.26;40.69;102062.02;110141;1251;19975;-35
2023/09/04 11:04:28;;;;;;;;;6.00;6.00;;;;;24.18;40.35;102062.48;110149;1250;20791;-37
2023/09/04 11:06:56;;;;;;;;;8.00;6.00;;;;;24.17;39.74;102057.23;110294;1265;22671;-36
2023/09/04 11:09:23;;;;;;;;;6.00;6.00;;;;;24.20;39.37;102053.70;110214;1265;19979;-38
2023/09/04 11:11:51;;;;;;;;;9.00;8.00;;;;;24.30;39.61;102053.46;110201;1265;19378;-36